Time;durP1;ratioP1;P1;durP2;ratioP2;P2;SDS_P1;SDS_P2;PMS_P1;PMS_P2;Temp;Humidity;BMP_temperature;BMP_pressure;BME280_temperature;BME280_humidity;BME280_pressure;Samples;Min_cycle;Max_cycle;Signal;HPM_P1;HPM_P2
2021/03/31 00:01:26;;;;;;;10.73;5.85;;;;;;;9.19;61.30;101230.13;20827642;28;20045;-73
2021/03/31 00:11:27;;;;;;;11.20;5.60;;;;;;;9.07;61.01;101234.00;20839721;28;20041;-73
2021/03/31 00:21:32;;;;;;;13.57;6.90;;;;;;;8.93;61.20;101224.06;20826359;28;20103;-73
2021/03/31 00:31:33;;;;;;;11.55;5.72;;;;;;;8.86;61.62;101221.69;20824878;28;20060;-73
2021/03/31 00:41:34;;;;;;;12.00;5.78;;;;;;;8.70;62.32;101218.72;20837532;28;20034;-73
2021/03/31 00:51:36;;;;;;;12.30;5.70;;;;;;;8.46;64.04;101216.94;20742181;28;20132;-73
2021/03/31 01:01:38;;;;;;;10.70;5.57;;;;;;;8.32;63.96;101204.34;20817788;28;20045;-74
2021/03/31 01:12:09;;;;;;;9.00;5.20;;;;;;;8.18;64.89;101196.06;20854856;28;20049;-74
2021/03/31 01:22:22;;;;;;;11.43;5.68;;;;;;;8.04;64.83;101191.28;20887021;28;20053;-73
2021/03/31 01:33:01;;;;;;;12.55;6.03;;;;;;;7.91;65.21;101166.50;20902892;28;20045;-73
2021/03/31 01:43:06;;;;;;;12.38;5.60;;;;;;;7.74;65.51;101164.41;20889239;28;20052;-74
2021/03/31 01:53:10;;;;;;;14.30;6.18;;;;;;;7.60;66.91;101166.59;20901473;28;20107;-73
2021/03/31 02:03:15;;;;;;;10.95;5.75;;;;;;;7.42;68.65;101174.91;20900756;28;20049;-73
2021/03/31 02:13:17;;;;;;;10.83;5.23;;;;;;;7.32;68.46;101166.50;20887490;28;20060;-73
2021/03/31 02:23:19;;;;;;;11.30;5.78;;;;;;;7.07;68.71;101149.03;20899955;28;20044;-73
2021/03/31 02:33:22;;;;;;;10.90;5.80;;;;;;;6.98;69.10;101144.94;20898112;28;20041;-73
2021/03/31 02:43:25;;;;;;;12.50;6.57;;;;;;;6.88;69.50;101144.34;20885426;28;20077;-72
2021/03/31 02:53:27;;;;;;;10.57;5.65;;;;;;;6.78;69.09;101153.28;20812556;28;20045;-74
2021/03/31 03:03:28;;;;;;;12.15;6.68;;;;;;;6.61;70.13;101134.66;20815868;28;20055;-73
2021/03/31 03:13:31;;;;;;;14.50;6.43;;;;;;;6.54;71.32;101143.53;20862539;28;20041;-73
2021/03/31 03:23:34;;;;;;;13.43;6.65;;;;;;;6.47;71.58;101143.72;20896825;28;20059;-73
2021/03/31 03:33:37;;;;;;;11.93;6.30;;;;;;;6.37;72.26;101145.69;20895732;28;20136;-74
2021/03/31 03:44:06;;;;;;;13.77;6.90;;;;;;;6.11;72.47;101150.66;20883165;28;20064;-74
2021/03/31 03:54:09;;;;;;;13.32;6.40;;;;;;;6.09;73.53;101149.88;20844810;28;20077;-73
2021/03/31 04:04:10;;;;;;;17.00;6.40;;;;;;;5.81;74.62;101154.81;20870286;28;20041;-73
2021/03/31 04:14:12;;;;;;;13.70;6.57;;;;;;;5.78;74.71;101147.94;20897107;28;20500;-73
2021/03/31 04:24:14;;;;;;;17.15;6.95;;;;;;;5.73;75.07;101142.00;20908486;28;20056;-73
2021/03/31 04:34:15;;;;;;;16.92;7.03;;;;;;;5.68;76.06;101145.59;20908340;28;20099;-73
2021/03/31 04:44:16;;;;;;;16.75;7.85;;;;;;;5.51;77.01;101146.81;20896080;28;20691;-71
2021/03/31 04:54:17;;;;;;;16.50;7.43;;;;;;;5.53;76.66;101144.19;20759129;28;20247;-72
2021/03/31 05:04:18;;;;;;;15.68;7.63;;;;;;;5.27;77.51;101139.53;20771273;28;20042;-72
2021/03/31 05:14:21;;;;;;;16.45;7.95;;;;;;;5.23;78.02;101150.88;20874397;28;20045;-72
2021/03/31 05:24:22;;;;;;;13.63;7.32;;;;;;;5.24;77.45;101147.38;20904978;28;20071;-72
2021/03/31 05:34:23;;;;;;;16.60;7.65;;;;;;;5.32;78.53;101148.09;20885505;28;20037;-72
2021/03/31 05:44:25;;;;;;;18.05;8.02;;;;;;;5.45;77.90;101140.88;20890288;28;20049;-71
2021/03/31 05:54:26;;;;;;;13.77;7.15;;;;;;;5.51;77.69;101140.75;20901651;28;20057;-72
2021/03/31 06:04:27;;;;;;;16.20;7.43;;;;;;;5.69;78.11;101140.34;20900259;28;20513;-72
2021/03/31 06:14:36;;;;;;;18.67;8.52;;;;;;;5.97;77.61;101151.88;20887016;28;20128;-72
2021/03/31 06:24:45;;;;;;;18.27;9.05;;;;;;;6.42;75.64;101146.44;20833613;28;20045;-72
2021/03/31 06:34:51;;;;;;;18.30;9.75;;;;;;;6.82;75.50;101144.50;20821118;28;20057;-71
2021/03/31 06:55:01;;;;;;;16.73;8.65;;;;;;;7.71;71.64;101138.47;20827659;28;20050;-71
2021/03/31 07:05:05;;;;;;;18.27;8.00;;;;;;;8.15;70.85;101133.59;20827180;28;20041;-71
2021/03/31 07:15:08;;;;;;;30.33;9.30;;;;;;;8.70;70.98;101144.81;20838884;28;20075;-71
2021/03/31 07:25:11;;;;;;;15.32;8.65;;;;;;;9.25;69.52;101144.53;20844050;28;20045;-72
2021/03/31 07:35:13;;;;;;;18.17;8.50;;;;;;;9.62;67.84;101140.53;20850527;28;20037;-71
2021/03/31 07:45:16;;;;;;;15.20;8.38;;;;;;;10.03;66.75;101141.53;20862896;28;20087;-71
2021/03/31 07:55:39;;;;;;;27.38;8.98;;;;;;;10.45;65.75;101138.97;20863912;28;20152;-72
2021/03/31 08:06:05;;;;;;;15.60;8.85;;;;;;;10.89;63.66;101135.28;20847492;28;20425;-71
2021/03/31 08:16:27;;;;;;;14.82;8.23;;;;;;;11.32;63.38;101134.25;20851238;28;20049;-71
2021/03/31 08:26:43;;;;;;;15.63;8.10;;;;;;;11.86;62.15;101120.34;20836623;28;20046;-71
2021/03/31 08:36:45;;;;;;;17.20;8.20;;;;;;;12.27;63.16;101125.34;20841203;28;20406;-71
2021/03/31 08:46:46;;;;;;;15.80;8.38;;;;;;;12.67;60.66;101124.19;20845776;28;20165;-70
2021/03/31 08:56:48;;;;;;;13.90;7.80;;;;;;;13.07;59.67;101118.56;20833276;28;20049;-70
2021/03/31 09:06:49;;;;;;;15.80;7.68;;;;;;;13.70;57.53;101108.16;20840111;28;20409;-70
2021/03/31 09:16:59;;;;;;;15.85;7.40;;;;;;;14.22;56.41;101098.09;20841945;28;20099;-71
2021/03/31 09:27:11;;;;;;;15.13;7.28;;;;;;;14.63;55.86;101090.44;20813990;28;20041;-71
2021/03/31 09:37:18;;;;;;;13.02;7.10;;;;;;;15.29;53.81;101080.16;20832125;28;20120;-72
2021/03/31 09:47:23;;;;;;;14.82;6.82;;;;;;;16.07;51.27;101070.72;20835295;28;20485;-70
2021/03/31 09:57:26;;;;;;;12.57;5.88;;;;;;;16.45;49.34;101057.59;20839176;28;20048;-70
2021/03/31 10:07:27;;;;;;;11.57;5.53;;;;;;;16.89;48.08;101046.63;20821058;28;20062;-71
2021/03/31 10:17:37;;;;;;;13.75;5.70;;;;;;;17.33;46.92;101034.66;20798077;28;20080;-71
2021/03/31 10:27:42;;;;;;;15.82;5.63;;;;;;;17.54;45.42;101014.56;20834996;28;20124;-71
2021/03/31 10:38:02;;;;;;;13.40;5.70;;;;;;;18.06;44.16;101016.88;20816263;28;20153;-70
2021/03/31 10:48:17;;;;;;;11.88;5.82;;;;;;;18.44;42.23;101005.97;20793110;28;20052;-71
2021/03/31 10:58:18;;;;;;;14.10;7.35;;;;;;;18.44;42.98;100987.41;20826237;28;20132;-71
2021/03/31 11:08:21;;;;;;;15.70;7.57;;;;;;;18.65;40.81;100982.28;20838741;28;20049;-71
2021/03/31 11:28:26;;;;;;;15.68;7.85;;;;;;;19.14;40.77;100948.25;20855858;28;20064;-72
2021/03/31 11:38:27;;;;;;;16.67;7.50;;;;;;;19.43;39.39;100934.38;20848568;28;20048;-71
2021/03/31 11:48:29;;;;;;;14.82;6.82;;;;;;;19.63;39.69;100922.97;20849636;28;20128;-71
2021/03/31 11:58:30;;;;;;;16.67;7.53;;;;;;;19.73;39.08;100909.78;20846287;28;20461;-72
2021/03/31 12:08:31;;;;;;;16.80;8.05;;;;;;;19.79;37.80;100893.31;20839286;28;20033;-72
2021/03/31 12:18:32;;;;;;;14.95;7.22;;;;;;;20.14;37.21;100885.81;20850034;28;20096;-71
2021/03/31 12:28:35;;;;;;;15.15;7.00;;;;;;;20.62;35.31;100877.22;20847485;28;20045;-70
2021/03/31 12:38:37;;;;;;;14.47;6.90;;;;;;;20.42;35.24;100860.34;20842764;28;20053;-72
2021/03/31 12:48:38;;;;;;;9.27;5.10;;;;;;;20.93;35.18;100846.88;20838144;28;20053;-72
2021/03/31 12:58:42;;;;;;;8.65;4.55;;;;;;;20.67;34.85;100832.44;20849346;28;20045;-71
2021/03/31 13:08:46;;;;;;;18.07;5.23;;;;;;;21.20;33.20;100815.13;20840922;28;20486;-72
2021/03/31 13:30:20;;;;;;;9.02;3.92;;;;;;;21.40;32.23;100785.81;20848950;28;20319;-72
2021/03/31 13:40:21;;;;;;;12.80;4.10;;;;;;;21.82;29.21;100773.78;20841936;28;20049;-70
2021/03/31 13:50:23;;;;;;;9.70;3.35;;;;;;;21.77;29.90;100752.91;20811683;28;20050;-70
2021/03/31 14:00:26;;;;;;;12.93;3.45;;;;;;;22.17;27.69;100738.41;20836436;28;20052;-70
2021/03/31 14:10:27;;;;;;;7.93;2.95;;;;;;;22.05;28.06;100711.09;20842664;28;20102;-70
2021/03/31 14:20:28;;;;;;;10.18;3.40;;;;;;;22.21;28.81;100699.78;20837834;28;20080;-70
2021/03/31 14:30:29;;;;;;;10.75;3.70;;;;;;;22.02;29.10;100690.09;20853829;28;20468;-70
2021/03/31 14:40:50;;;;;;;9.48;3.10;;;;;;;21.99;28.25;100677.03;20839437;28;20176;-72
2021/03/31 14:50:51;;;;;;;9.02;3.40;;;;;;;22.12;27.75;100671.34;20862701;28;20890;-72
2021/03/31 15:00:53;;;;;;;8.98;2.65;;;;;;;22.25;26.36;100655.00;20842985;28;20055;-72
2021/03/31 15:10:54;;;;;;;8.32;2.70;;;;;;;22.24;27.66;100642.66;20845140;28;20045;-72
2021/03/31 15:21:32;;;;;;;7.53;2.53;;;;;;;22.27;26.06;100645.00;20830119;28;20139;-72
2021/03/31 15:31:53;;;;;;;5.28;2.08;;;;;;;22.42;25.36;100638.13;20816859;28;20124;-72
2021/03/31 15:41:59;;;;;;;6.30;2.88;;;;;;;22.55;25.36;100625.25;20849254;28;20552;-72
2021/03/31 15:52:05;;;;;;;10.80;2.40;;;;;;;22.45;25.65;100617.31;20829761;28;20053;-72
2021/03/31 16:02:09;;;;;;;7.85;2.38;;;;;;;22.44;26.68;100605.00;20829383;28;20072;-72
2021/03/31 16:12:14;;;;;;;6.55;2.67;;;;;;;22.43;26.38;100605.13;20847155;28;20080;-71
2021/03/31 16:22:20;;;;;;;7.20;2.70;;;;;;;22.52;27.18;100598.88;20833946;28;20045;-72
2021/03/31 16:32:27;;;;;;;9.55;3.38;;;;;;;22.29;26.63;100587.88;20844797;28;20726;-72
2021/03/31 16:42:33;;;;;;;6.55;2.60;;;;;;;21.91;27.74;100586.31;20827407;28;20106;-72
2021/03/31 16:52:34;;;;;;;10.48;2.28;;;;;;;21.49;28.77;100578.00;20814611;28;20041;-70
